sensor_id;sensor_type;location;lat;lon;timestamp;P1;durP1;ratioP1;P2;durP2;ratioP2
25341;SDS011;13298;48.792;9.154;2024-01-10T00:01:58;13.32;;;5.75;;
25341;SDS011;13298;48.792;9.154;2024-01-10T00:04:24;17.40;;;6.63;;
25341;SDS011;13298;48.792;9.154;2024-01-10T00:06:50;20.13;;;6.57;;
25341;SDS011;13298;48.792;9.154;2024-01-10T00:09:15;17.35;;;6.85;;
25341;SDS011;13298;48.792;9.154;2024-01-10T00:11:41;15.73;;;6.60;;
25341;SDS011;13298;48.792;9.154;2024-01-10T00:14:07;15.27;;;6.57;;
25341;SDS011;13298;48.792;9.154;2024-01-10T00:16:32;12.77;;;5.25;;
25341;SDS011;13298;48.792;9.154;2024-01-10T00:18:58;14.35;;;6.57;;
25341;SDS011;13298;48.792;9.154;2024-01-10T00:21:24;13.10;;;5.80;;
25341;SDS011;13298;48.792;9.154;2024-01-10T00:23:50;14.75;;;6.72;;
25341;SDS011;13298;48.792;9.154;2024-01-10T00:26:15;19.50;;;6.38;;
25341;SDS011;13298;48.792;9.154;2024-01-10T00:28:42;14.23;;;6.30;;
25341;SDS011;13298;48.792;9.154;2024-01-10T00:31:07;14.13;;;6.05;;
25341;SDS011;13298;48.792;9.154;2024-01-10T00:33:33;13.02;;;5.97;;
25341;SDS011;13298;48.792;9.154;2024-01-10T00:35:59;15.00;;;5.93;;
25341;SDS011;13298;48.792;9.154;2024-01-10T00:38:25;13.45;;;6.43;;
25341;SDS011;13298;48.792;9.154;2024-01-10T00:40:51;14.93;;;6.35;;
25341;SDS011;13298;48.792;9.154;2024-01-10T00:43:16;12.75;;;6.15;;
25341;SDS011;13298;48.792;9.154;2024-01-10T00:45:42;14.00;;;6.07;;
25341;SDS011;13298;48.792;9.154;2024-01-10T00:48:08;14.15;;;6.65;;
25341;SDS011;13298;48.792;9.154;2024-01-10T00:50:33;14.68;;;6.65;;
25341;SDS011;13298;48.792;9.154;2024-01-10T00:52:59;14.18;;;6.20;;
25341;SDS011;13298;48.792;9.154;2024-01-10T00:55:25;18.70;;;7.07;;
25341;SDS011;13298;48.792;9.154;2024-01-10T00:57:50;16.88;;;6.28;;
25341;SDS011;13298;48.792;9.154;2024-01-10T01:00:16;13.48;;;6.35;;
25341;SDS011;13298;48.792;9.154;2024-01-10T01:02:42;16.60;;;6.72;;
25341;SDS011;13298;48.792;9.154;2024-01-10T01:05:07;16.05;;;6.35;;
25341;SDS011;13298;48.792;9.154;2024-01-10T01:07:34;14.98;;;6.13;;
25341;SDS011;13298;48.792;9.154;2024-01-10T01:09:59;17.15;;;6.50;;
25341;SDS011;13298;48.792;9.154;2024-01-10T01:12:25;20.33;;;6.85;;
25341;SDS011;13298;48.792;9.154;2024-01-10T01:14:51;18.52;;;6.47;;
25341;SDS011;13298;48.792;9.154;2024-01-10T01:17:17;18.02;;;6.93;;
25341;SDS011;13298;48.792;9.154;2024-01-10T01:19:42;16.05;;;6.75;;
25341;SDS011;13298;48.792;9.154;2024-01-10T01:22:08;13.23;;;5.75;;
25341;SDS011;13298;48.792;9.154;2024-01-10T01:24:34;13.68;;;6.03;;
25341;SDS011;13298;48.792;9.154;2024-01-10T01:26:59;17.02;;;6.55;;
25341;SDS011;13298;48.792;9.154;2024-01-10T01:29:25;16.92;;;6.75;;
25341;SDS011;13298;48.792;9.154;2024-01-10T01:31:51;15.07;;;6.97;;
25341;SDS011;13298;48.792;9.154;2024-01-10T01:34:18;17.38;;;6.47;;
25341;SDS011;13298;48.792;9.154;2024-01-10T01:36:44;14.05;;;6.50;;
25341;SDS011;13298;48.792;9.154;2024-01-10T01:39:10;14.13;;;6.43;;
25341;SDS011;13298;48.792;9.154;2024-01-10T01:41:38;19.45;;;6.70;;
25341;SDS011;13298;48.792;9.154;2024-01-10T01:44:04;13.13;;;5.93;;
25341;SDS011;13298;48.792;9.154;2024-01-10T01:46:30;17.98;;;7.30;;
25341;SDS011;13298;48.792;9.154;2024-01-10T01:48:57;17.35;;;6.93;;
25341;SDS011;13298;48.792;9.154;2024-01-10T01:51:24;15.73;;;6.82;;
25341;SDS011;13298;48.792;9.154;2024-01-10T01:53:51;15.25;;;6.72;;
25341;SDS011;13298;48.792;9.154;2024-01-10T01:56:18;15.88;;;6.88;;
25341;SDS011;13298;48.792;9.154;2024-01-10T01:58:44;14.30;;;6.97;;
25341;SDS011;13298;48.792;9.154;2024-01-10T02:01:12;15.18;;;6.72;;
25341;SDS011;13298;48.792;9.154;2024-01-10T02:03:37;21.60;;;7.35;;
25341;SDS011;13298;48.792;9.154;2024-01-10T02:06:03;16.52;;;6.72;;
25341;SDS011;13298;48.792;9.154;2024-01-10T02:08:33;15.93;;;6.60;;
25341;SDS011;13298;48.792;9.154;2024-01-10T02:11:00;13.23;;;6.22;;
25341;SDS011;13298;48.792;9.154;2024-01-10T02:13:28;16.25;;;6.80;;
25341;SDS011;13298;48.792;9.154;2024-01-10T02:15:54;14.35;;;6.60;;
25341;SDS011;13298;48.792;9.154;2024-01-10T02:18:20;13.73;;;6.63;;
25341;SDS011;13298;48.792;9.154;2024-01-10T02:20:46;15.52;;;6.55;;
25341;SDS011;13298;48.792;9.154;2024-01-10T02:23:12;15.45;;;6.30;;
25341;SDS011;13298;48.792;9.154;2024-01-10T02:25:38;12.75;;;5.97;;
25341;SDS011;13298;48.792;9.154;2024-01-10T02:28:05;16.02;;;6.55;;
25341;SDS011;13298;48.792;9.154;2024-01-10T02:30:32;14.65;;;6.10;;
25341;SDS011;13298;48.792;9.154;2024-01-10T02:32:58;14.07;;;6.10;;
25341;SDS011;13298;48.792;9.154;2024-01-10T02:35:24;14.15;;;6.07;;
25341;SDS011;13298;48.792;9.154;2024-01-10T02:37:49;16.00;;;6.20;;
25341;SDS011;13298;48.792;9.154;2024-01-10T02:40:16;13.77;;;5.65;;
25341;SDS011;13298;48.792;9.154;2024-01-10T02:42:42;14.38;;;6.38;;
25341;SDS011;13298;48.792;9.154;2024-01-10T02:45:08;16.13;;;6.80;;
25341;SDS011;13298;48.792;9.154;2024-01-10T02:47:34;15.02;;;5.60;;
25341;SDS011;13298;48.792;9.154;2024-01-10T02:50:02;17.50;;;6.35;;
25341;SDS011;13298;48.792;9.154;2024-01-10T02:52:29;10.55;;;5.38;;
25341;SDS011;13298;48.792;9.154;2024-01-10T02:54:54;14.40;;;5.80;;
25341;SDS011;13298;48.792;9.154;2024-01-10T02:57:20;11.65;;;5.75;;
25341;SDS011;13298;48.792;9.154;2024-01-10T02:59:46;15.07;;;6.05;;
25341;SDS011;13298;48.792;9.154;2024-01-10T03:02:11;13.63;;;5.90;;
25341;SDS011;13298;48.792;9.154;2024-01-10T03:04:37;15.15;;;6.07;;
25341;SDS011;13298;48.792;9.154;2024-01-10T03:07:03;14.05;;;5.60;;
25341;SDS011;13298;48.792;9.154;2024-01-10T03:09:28;16.92;;;5.50;;
25341;SDS011;13298;48.792;9.154;2024-01-10T03:11:54;12.10;;;5.32;;
25341;SDS011;13298;48.792;9.154;2024-01-10T03:14:20;12.65;;;5.63;;
25341;SDS011;13298;48.792;9.154;2024-01-10T03:16:47;13.18;;;5.25;;
25341;SDS011;13298;48.792;9.154;2024-01-10T03:19:13;15.68;;;5.63;;
25341;SDS011;13298;48.792;9.154;2024-01-10T03:21:38;15.40;;;5.60;;
25341;SDS011;13298;48.792;9.154;2024-01-10T03:24:04;14.77;;;6.05;;
25341;SDS011;13298;48.792;9.154;2024-01-10T03:26:30;12.63;;;5.72;;
25341;SDS011;13298;48.792;9.154;2024-01-10T03:28:56;13.75;;;5.78;;
25341;SDS011;13298;48.792;9.154;2024-01-10T03:31:22;13.43;;;6.28;;
25341;SDS011;13298;48.792;9.154;2024-01-10T03:33:48;15.73;;;5.88;;
25341;SDS011;13298;48.792;9.154;2024-01-10T03:36:17;15.00;;;5.88;;
25341;SDS011;13298;48.792;9.154;2024-01-10T03:38:43;16.17;;;6.07;;
25341;SDS011;13298;48.792;9.154;2024-01-10T03:41:13;14.60;;;4.93;;
25341;SDS011;13298;48.792;9.154;2024-01-10T03:43:42;16.55;;;6.95;;
25341;SDS011;13298;48.792;9.154;2024-01-10T03:46:09;14.13;;;6.10;;
25341;SDS011;13298;48.792;9.154;2024-01-10T03:48:35;14.32;;;6.28;;
25341;SDS011;13298;48.792;9.154;2024-01-10T03:51:02;18.80;;;6.18;;
25341;SDS011;13298;48.792;9.154;2024-01-10T03:53:28;14.15;;;6.25;;
25341;SDS011;13298;48.792;9.154;2024-01-10T03:55:54;15.85;;;5.93;;
25341;SDS011;13298;48.792;9.154;2024-01-10T03:58:20;12.95;;;6.20;;
25341;SDS011;13298;48.792;9.154;2024-01-10T04:00:46;12.13;;;6.55;;
25341;SDS011;13298;48.792;9.154;2024-01-10T04:03:11;13.25;;;6.05;;
25341;SDS011;13298;48.792;9.154;2024-01-10T04:05:37;13.88;;;6.50;;
25341;SDS011;13298;48.792;9.154;2024-01-10T04:08:03;14.50;;;6.45;;
25341;SDS011;13298;48.792;9.154;2024-01-10T04:10:29;11.88;;;6.13;;
25341;SDS011;13298;48.792;9.154;2024-01-10T04:12:55;15.70;;;6.45;;
25341;SDS011;13298;48.792;9.154;2024-01-10T04:15:20;16.65;;;6.07;;
25341;SDS011;13298;48.792;9.154;2024-01-10T04:17:46;16.75;;;6.70;;
25341;SDS011;13298;48.792;9.154;2024-01-10T04:20:12;10.85;;;5.70;;
25341;SDS011;13298;48.792;9.154;2024-01-10T04:22:38;14.77;;;5.70;;
25341;SDS011;13298;48.792;9.154;2024-01-10T04:25:05;17.25;;;6.80;;
25341;SDS011;13298;48.792;9.154;2024-01-10T04:27:32;16.20;;;6.72;;
25341;SDS011;13298;48.792;9.154;2024-01-10T04:29:58;12.98;;;6.22;;
25341;SDS011;13298;48.792;9.154;2024-01-10T04:32:24;13.23;;;6.22;;
25341;SDS011;13298;48.792;9.154;2024-01-10T04:34:50;16.25;;;6.15;;
25341;SDS011;13298;48.792;9.154;2024-01-10T04:37:15;16.20;;;7.10;;
25341;SDS011;13298;48.792;9.154;2024-01-10T04:39:41;16.60;;;6.75;;
25341;SDS011;13298;48.792;9.154;2024-01-10T04:42:10;14.52;;;6.15;;
25341;SDS011;13298;48.792;9.154;2024-01-10T04:44:36;17.17;;;6.22;;
25341;SDS011;13298;48.792;9.154;2024-01-10T04:47:02;15.70;;;6.78;;
25341;SDS011;13298;48.792;9.154;2024-01-10T04:49:29;17.70;;;7.88;;
25341;SDS011;13298;48.792;9.154;2024-01-10T04:51:55;14.35;;;7.38;;
25341;SDS011;13298;48.792;9.154;2024-01-10T04:54:20;17.70;;;7.05;;
25341;SDS011;13298;48.792;9.154;2024-01-10T04:56:46;17.65;;;6.78;;
25341;SDS011;13298;48.792;9.154;2024-01-10T04:59:12;14.80;;;6.28;;
25341;SDS011;13298;48.792;9.154;2024-01-10T05:01:38;12.90;;;6.38;;
25341;SDS011;13298;48.792;9.154;2024-01-10T05:04:03;17.17;;;6.75;;
25341;SDS011;13298;48.792;9.154;2024-01-10T05:06:29;17.75;;;7.65;;
25341;SDS011;13298;48.792;9.154;2024-01-10T05:08:55;19.88;;;7.78;;
25341;SDS011;13298;48.792;9.154;2024-01-10T05:11:23;20.02;;;7.57;;
25341;SDS011;13298;48.792;9.154;2024-01-10T05:13:50;17.92;;;8.43;;
25341;SDS011;13298;48.792;9.154;2024-01-10T05:16:17;16.77;;;7.90;;
25341;SDS011;13298;48.792;9.154;2024-01-10T05:18:43;20.38;;;8.15;;
25341;SDS011;13298;48.792;9.154;2024-01-10T05:21:08;15.93;;;7.35;;
25341;SDS011;13298;48.792;9.154;2024-01-10T05:23:34;17.40;;;7.72;;
25341;SDS011;13298;48.792;9.154;2024-01-10T05:26:00;18.50;;;7.80;;
25341;SDS011;13298;48.792;9.154;2024-01-10T05:28:26;17.27;;;7.13;;
25341;SDS011;13298;48.792;9.154;2024-01-10T05:30:51;18.75;;;7.97;;
25341;SDS011;13298;48.792;9.154;2024-01-10T05:33:18;20.83;;;8.23;;
25341;SDS011;13298;48.792;9.154;2024-01-10T05:35:45;18.17;;;7.78;;
25341;SDS011;13298;48.792;9.154;2024-01-10T05:38:11;18.65;;;7.75;;
25341;SDS011;13298;48.792;9.154;2024-01-10T05:40:36;21.60;;;8.63;;
25341;SDS011;13298;48.792;9.154;2024-01-10T05:43:02;18.33;;;8.35;;
25341;SDS011;13298;48.792;9.154;2024-01-10T05:45:28;19.75;;;8.32;;
25341;SDS011;13298;48.792;9.154;2024-01-10T05:47:54;14.95;;;7.68;;
25341;SDS011;13298;48.792;9.154;2024-01-10T05:50:20;19.75;;;8.02;;
25341;SDS011;13298;48.792;9.154;2024-01-10T05:52:46;16.52;;;7.00;;
25341;SDS011;13298;48.792;9.154;2024-01-10T05:55:12;21.23;;;8.55;;
25341;SDS011;13298;48.792;9.154;2024-01-10T05:57:38;19.25;;;7.13;;
25341;SDS011;13298;48.792;9.154;2024-01-10T06:00:05;18.08;;;7.78;;
25341;SDS011;13298;48.792;9.154;2024-01-10T06:02:35;21.85;;;7.85;;
25341;SDS011;13298;48.792;9.154;2024-01-10T06:05:10;15.55;;;7.35;;
25341;SDS011;13298;48.792;9.154;2024-01-10T06:07:37;15.85;;;7.53;;
25341;SDS011;13298;48.792;9.154;2024-01-10T06:10:04;21.75;;;8.00;;
25341;SDS011;13298;48.792;9.154;2024-01-10T06:12:30;19.52;;;8.40;;
25341;SDS011;13298;48.792;9.154;2024-01-10T06:14:56;16.58;;;7.47;;
25341;SDS011;13298;48.792;9.154;2024-01-10T06:17:22;17.17;;;7.28;;
25341;SDS011;13298;48.792;9.154;2024-01-10T06:19:48;21.23;;;8.38;;
25341;SDS011;13298;48.792;9.154;2024-01-10T06:22:15;20.27;;;8.07;;
25341;SDS011;13298;48.792;9.154;2024-01-10T06:24:41;18.20;;;7.93;;
25341;SDS011;13298;48.792;9.154;2024-01-10T06:27:08;19.73;;;8.65;;
25341;SDS011;13298;48.792;9.154;2024-01-10T06:29:34;20.63;;;8.10;;
25341;SDS011;13298;48.792;9.154;2024-01-10T06:32:01;17.88;;;7.95;;
25341;SDS011;13298;48.792;9.154;2024-01-10T06:34:28;20.23;;;9.07;;
25341;SDS011;13298;48.792;9.154;2024-01-10T06:36:54;17.42;;;8.93;;
25341;SDS011;13298;48.792;9.154;2024-01-10T06:39:20;20.17;;;8.75;;
25341;SDS011;13298;48.792;9.154;2024-01-10T06:41:46;18.70;;;7.47;;
25341;SDS011;13298;48.792;9.154;2024-01-10T06:44:15;18.52;;;8.30;;
25341;SDS011;13298;48.792;9.154;2024-01-10T06:46:44;19.63;;;8.50;;
25341;SDS011;13298;48.792;9.154;2024-01-10T06:49:10;20.50;;;8.38;;
25341;SDS011;13298;48.792;9.154;2024-01-10T06:51:36;16.85;;;7.88;;
25341;SDS011;13298;48.792;9.154;2024-01-10T06:54:02;14.50;;;7.15;;
25341;SDS011;13298;48.792;9.154;2024-01-10T06:56:31;16.25;;;7.82;;
25341;SDS011;13298;48.792;9.154;2024-01-10T06:58:58;19.35;;;8.13;;
25341;SDS011;13298;48.792;9.154;2024-01-10T07:01:25;18.55;;;7.93;;
25341;SDS011;13298;48.792;9.154;2024-01-10T07:03:52;16.90;;;8.23;;
25341;SDS011;13298;48.792;9.154;2024-01-10T07:06:22;18.23;;;8.23;;
25341;SDS011;13298;48.792;9.154;2024-01-10T07:08:48;19.20;;;8.30;;
25341;SDS011;13298;48.792;9.154;2024-01-10T07:11:18;20.02;;;8.13;;
25341;SDS011;13298;48.792;9.154;2024-01-10T07:13:44;20.83;;;7.72;;
25341;SDS011;13298;48.792;9.154;2024-01-10T07:16:10;20.02;;;8.05;;
25341;SDS011;13298;48.792;9.154;2024-01-10T07:18:39;17.63;;;7.18;;
25341;SDS011;13298;48.792;9.154;2024-01-10T07:21:06;19.02;;;8.38;;
25341;SDS011;13298;48.792;9.154;2024-01-10T07:23:34;21.05;;;7.63;;
25341;SDS011;13298;48.792;9.154;2024-01-10T07:26:00;22.45;;;9.23;;
25341;SDS011;13298;48.792;9.154;2024-01-10T07:28:26;20.50;;;8.60;;
25341;SDS011;13298;48.792;9.154;2024-01-10T07:30:51;19.98;;;8.07;;
25341;SDS011;13298;48.792;9.154;2024-01-10T07:33:17;22.42;;;8.65;;
25341;SDS011;13298;48.792;9.154;2024-01-10T07:35:43;20.65;;;8.88;;
25341;SDS011;13298;48.792;9.154;2024-01-10T07:38:08;19.23;;;8.23;;
25341;SDS011;13298;48.792;9.154;2024-01-10T07:40:34;20.55;;;8.43;;
25341;SDS011;13298;48.792;9.154;2024-01-10T07:43:01;19.90;;;8.30;;
25341;SDS011;13298;48.792;9.154;2024-01-10T07:45:27;19.38;;;8.68;;
25341;SDS011;13298;48.792;9.154;2024-01-10T07:47:53;19.85;;;8.95;;
25341;SDS011;13298;48.792;9.154;2024-01-10T07:50:19;18.70;;;7.75;;
25341;SDS011;13298;48.792;9.154;2024-01-10T07:52:45;16.42;;;7.60;;
25341;SDS011;13298;48.792;9.154;2024-01-10T07:55:11;23.67;;;9.15;;
25341;SDS011;13298;48.792;9.154;2024-01-10T07:57:37;19.85;;;9.10;;
25341;SDS011;13298;48.792;9.154;2024-01-10T08:00:06;21.02;;;8.05;;
25341;SDS011;13298;48.792;9.154;2024-01-10T08:02:35;19.35;;;8.55;;
25341;SDS011;13298;48.792;9.154;2024-01-10T08:05:02;18.23;;;7.50;;
25341;SDS011;13298;48.792;9.154;2024-01-10T08:07:35;18.10;;;7.88;;
25341;SDS011;13298;48.792;9.154;2024-01-10T08:10:04;20.98;;;8.48;;
25341;SDS011;13298;48.792;9.154;2024-01-10T08:12:34;20.20;;;8.60;;
25341;SDS011;13298;48.792;9.154;2024-01-10T08:17:32;19.95;;;7.85;;
25341;SDS011;13298;48.792;9.154;2024-01-10T08:19:59;20.38;;;8.30;;
25341;SDS011;13298;48.792;9.154;2024-01-10T08:22:29;19.52;;;9.00;;
25341;SDS011;13298;48.792;9.154;2024-01-10T08:24:54;22.95;;;9.75;;
25341;SDS011;13298;48.792;9.154;2024-01-10T08:27:21;22.45;;;9.13;;
25341;SDS011;13298;48.792;9.154;2024-01-10T08:29:46;15.02;;;8.10;;
25341;SDS011;13298;48.792;9.154;2024-01-10T08:32:12;17.52;;;8.25;;
25341;SDS011;13298;48.792;9.154;2024-01-10T08:34:38;22.67;;;9.20;;
25341;SDS011;13298;48.792;9.154;2024-01-10T08:37:03;22.23;;;9.13;;
25341;SDS011;13298;48.792;9.154;2024-01-10T08:39:29;21.90;;;9.55;;
25341;SDS011;13298;48.792;9.154;2024-01-10T08:41:55;18.67;;;8.98;;
25341;SDS011;13298;48.792;9.154;2024-01-10T08:44:22;19.50;;;9.32;;
25341;SDS011;13298;48.792;9.154;2024-01-10T08:46:48;20.35;;;9.02;;
25341;SDS011;13298;48.792;9.154;2024-01-10T08:49:16;18.27;;;8.43;;
25341;SDS011;13298;48.792;9.154;2024-01-10T08:51:42;20.00;;;9.07;;
25341;SDS011;13298;48.792;9.154;2024-01-10T08:54:08;22.63;;;9.82;;
25341;SDS011;13298;48.792;9.154;2024-01-10T08:56:34;23.67;;;9.85;;
25341;SDS011;13298;48.792;9.154;2024-01-10T08:59:00;23.55;;;10.40;;
25341;SDS011;13298;48.792;9.154;2024-01-10T09:01:26;23.00;;;10.10;;
25341;SDS011;13298;48.792;9.154;2024-01-10T09:03:52;23.48;;;10.13;;
25341;SDS011;13298;48.792;9.154;2024-01-10T09:06:17;25.50;;;10.02;;
25341;SDS011;13298;48.792;9.154;2024-01-10T09:08:43;26.35;;;10.35;;
25341;SDS011;13298;48.792;9.154;2024-01-10T09:11:09;22.88;;;10.55;;
25341;SDS011;13298;48.792;9.154;2024-01-10T09:13:34;23.00;;;10.43;;
25341;SDS011;13298;48.792;9.154;2024-01-10T09:16:03;23.63;;;11.20;;
25341;SDS011;13298;48.792;9.154;2024-01-10T09:18:29;23.40;;;10.82;;
25341;SDS011;13298;48.792;9.154;2024-01-10T09:20:54;25.08;;;10.45;;
25341;SDS011;13298;48.792;9.154;2024-01-10T09:23:20;24.33;;;10.82;;
25341;SDS011;13298;48.792;9.154;2024-01-10T09:25:46;22.40;;;10.82;;
25341;SDS011;13298;48.792;9.154;2024-01-10T09:28:11;25.00;;;10.70;;
25341;SDS011;13298;48.792;9.154;2024-01-10T09:30:37;21.23;;;9.98;;
25341;SDS011;13298;48.792;9.154;2024-01-10T09:33:04;22.65;;;10.07;;
25341;SDS011;13298;48.792;9.154;2024-01-10T09:35:29;21.40;;;9.88;;
25341;SDS011;13298;48.792;9.154;2024-01-10T09:37:55;21.80;;;9.60;;
25341;SDS011;13298;48.792;9.154;2024-01-10T09:40:21;21.77;;;11.02;;
25341;SDS011;13298;48.792;9.154;2024-01-10T09:42:49;24.02;;;10.57;;
25341;SDS011;13298;48.792;9.154;2024-01-10T09:45:19;28.70;;;11.38;;
25341;SDS011;13298;48.792;9.154;2024-01-10T09:47:48;24.33;;;11.15;;
25341;SDS011;13298;48.792;9.154;2024-01-10T09:50:17;29.48;;;12.02;;
25341;SDS011;13298;48.792;9.154;2024-01-10T09:55:23;28.77;;;10.68;;
25341;SDS011;13298;48.792;9.154;2024-01-10T09:57:51;23.65;;;10.88;;
25341;SDS011;13298;48.792;9.154;2024-01-10T10:00:17;23.83;;;10.77;;
25341;SDS011;13298;48.792;9.154;2024-01-10T10:02:43;26.45;;;10.70;;
25341;SDS011;13298;48.792;9.154;2024-01-10T10:05:13;25.27;;;11.45;;
25341;SDS011;13298;48.792;9.154;2024-01-10T10:07:47;25.50;;;10.82;;
25341;SDS011;13298;48.792;9.154;2024-01-10T10:10:18;23.83;;;11.65;;
25341;SDS011;13298;48.792;9.154;2024-01-10T10:12:44;29.75;;;12.57;;
25341;SDS011;13298;48.792;9.154;2024-01-10T10:15:19;28.60;;;11.60;;
25341;SDS011;13298;48.792;9.154;2024-01-10T10:17:47;23.65;;;10.85;;
25341;SDS011;13298;48.792;9.154;2024-01-10T10:23:02;22.95;;;11.00;;
25341;SDS011;13298;48.792;9.154;2024-01-10T10:25:43;23.98;;;10.60;;
25341;SDS011;13298;48.792;9.154;2024-01-10T10:28:09;28.48;;;12.48;;
25341;SDS011;13298;48.792;9.154;2024-01-10T10:30:35;23.00;;;11.07;;
25341;SDS011;13298;48.792;9.154;2024-01-10T10:33:01;25.92;;;12.40;;
25341;SDS011;13298;48.792;9.154;2024-01-10T10:35:28;27.42;;;12.20;;
25341;SDS011;13298;48.792;9.154;2024-01-10T10:37:54;23.80;;;11.45;;
25341;SDS011;13298;48.792;9.154;2024-01-10T10:40:20;25.95;;;12.00;;
25341;SDS011;13298;48.792;9.154;2024-01-10T10:42:47;24.45;;;11.38;;
25341;SDS011;13298;48.792;9.154;2024-01-10T10:45:21;24.33;;;11.70;;
25341;SDS011;13298;48.792;9.154;2024-01-10T10:47:58;26.85;;;12.23;;
25341;SDS011;13298;48.792;9.154;2024-01-10T10:50:27;27.88;;;11.35;;
25341;SDS011;13298;48.792;9.154;2024-01-10T10:52:57;24.33;;;11.52;;
25341;SDS011;13298;48.792;9.154;2024-01-10T10:55:26;26.13;;;12.63;;
25341;SDS011;13298;48.792;9.154;2024-01-10T10:57:52;24.67;;;11.63;;
25341;SDS011;13298;48.792;9.154;2024-01-10T11:00:21;25.98;;;12.07;;
25341;SDS011;13298;48.792;9.154;2024-01-10T11:02:55;27.83;;;13.10;;
25341;SDS011;13298;48.792;9.154;2024-01-10T11:05:22;29.60;;;14.07;;
25341;SDS011;13298;48.792;9.154;2024-01-10T11:07:49;28.38;;;13.02;;
25341;SDS011;13298;48.792;9.154;2024-01-10T11:10:28;30.08;;;13.27;;
25341;SDS011;13298;48.792;9.154;2024-01-10T11:13:02;28.75;;;13.30;;
25341;SDS011;13298;48.792;9.154;2024-01-10T11:15:59;31.30;;;12.93;;
25341;SDS011;13298;48.792;9.154;2024-01-10T11:21:38;28.25;;;11.85;;
25341;SDS011;13298;48.792;9.154;2024-01-10T11:24:25;27.25;;;12.50;;
25341;SDS011;13298;48.792;9.154;2024-01-10T11:27:05;29.25;;;12.45;;
25341;SDS011;13298;48.792;9.154;2024-01-10T11:29:41;31.52;;;13.23;;
25341;SDS011;13298;48.792;9.154;2024-01-10T11:32:13;30.48;;;13.38;;
25341;SDS011;13298;48.792;9.154;2024-01-10T11:34:58;31.70;;;13.43;;
25341;SDS011;13298;48.792;9.154;2024-01-10T11:37:44;28.33;;;13.57;;
25341;SDS011;13298;48.792;9.154;2024-01-10T11:40:14;30.55;;;13.15;;
25341;SDS011;13298;48.792;9.154;2024-01-10T11:42:41;29.65;;;13.13;;
25341;SDS011;13298;48.792;9.154;2024-01-10T11:47:59;30.02;;;13.00;;
25341;SDS011;13298;48.792;9.154;2024-01-10T11:50:25;29.77;;;13.27;;
25341;SDS011;13298;48.792;9.154;2024-01-10T11:52:54;25.63;;;12.50;;
25341;SDS011;13298;48.792;9.154;2024-01-10T11:58:19;27.33;;;13.45;;
25341;SDS011;13298;48.792;9.154;2024-01-10T12:00:48;27.67;;;12.27;;
25341;SDS011;13298;48.792;9.154;2024-01-10T12:03:14;29.60;;;13.55;;
25341;SDS011;13298;48.792;9.154;2024-01-10T12:05:42;24.92;;;12.38;;
25341;SDS011;13298;48.792;9.154;2024-01-10T12:08:08;25.27;;;11.98;;
25341;SDS011;13298;48.792;9.154;2024-01-10T12:10:34;34.20;;;13.95;;
25341;SDS011;13298;48.792;9.154;2024-01-10T12:13:04;28.02;;;13.45;;
25341;SDS011;13298;48.792;9.154;2024-01-10T12:15:30;31.20;;;14.40;;
25341;SDS011;13298;48.792;9.154;2024-01-10T12:17:55;30.55;;;13.23;;
25341;SDS011;13298;48.792;9.154;2024-01-10T12:20:21;31.85;;;13.85;;
25341;SDS011;13298;48.792;9.154;2024-01-10T12:22:47;27.23;;;13.20;;
25341;SDS011;13298;48.792;9.154;2024-01-10T12:25:13;28.08;;;13.35;;
25341;SDS011;13298;48.792;9.154;2024-01-10T12:27:39;28.55;;;12.88;;
25341;SDS011;13298;48.792;9.154;2024-01-10T12:30:05;29.00;;;13.73;;
25341;SDS011;13298;48.792;9.154;2024-01-10T12:32:32;31.70;;;13.73;;
25341;SDS011;13298;48.792;9.154;2024-01-10T12:35:01;29.35;;;13.95;;
25341;SDS011;13298;48.792;9.154;2024-01-10T12:37:28;27.60;;;13.00;;
25341;SDS011;13298;48.792;9.154;2024-01-10T12:39:54;29.42;;;14.55;;
25341;SDS011;13298;48.792;9.154;2024-01-10T12:42:21;29.38;;;14.40;;
25341;SDS011;13298;48.792;9.154;2024-01-10T12:44:47;32.58;;;14.23;;
25341;SDS011;13298;48.792;9.154;2024-01-10T12:47:19;29.55;;;13.88;;
25341;SDS011;13298;48.792;9.154;2024-01-10T12:49:45;28.73;;;12.93;;
25341;SDS011;13298;48.792;9.154;2024-01-10T12:52:12;30.20;;;14.52;;
25341;SDS011;13298;48.792;9.154;2024-01-10T12:54:38;28.80;;;13.60;;
25341;SDS011;13298;48.792;9.154;2024-01-10T12:57:05;32.58;;;15.18;;
25341;SDS011;13298;48.792;9.154;2024-01-10T12:59:31;32.78;;;14.20;;
25341;SDS011;13298;48.792;9.154;2024-01-10T13:01:58;30.95;;;13.57;;
25341;SDS011;13298;48.792;9.154;2024-01-10T13:04:24;34.80;;;15.40;;
25341;SDS011;13298;48.792;9.154;2024-01-10T13:06:50;30.58;;;14.50;;
25341;SDS011;13298;48.792;9.154;2024-01-10T13:09:15;28.73;;;13.32;;
25341;SDS011;13298;48.792;9.154;2024-01-10T13:11:41;32.03;;;15.13;;
25341;SDS011;13298;48.792;9.154;2024-01-10T13:14:07;32.75;;;15.13;;
25341;SDS011;13298;48.792;9.154;2024-01-10T13:16:34;29.02;;;13.35;;
25341;SDS011;13298;48.792;9.154;2024-01-10T13:19:00;31.48;;;13.77;;
25341;SDS011;13298;48.792;9.154;2024-01-10T13:21:25;30.58;;;14.40;;
25341;SDS011;13298;48.792;9.154;2024-01-10T13:23:51;29.52;;;13.40;;
25341;SDS011;13298;48.792;9.154;2024-01-10T13:26:17;30.50;;;14.25;;
25341;SDS011;13298;48.792;9.154;2024-01-10T13:28:43;24.80;;;12.70;;
25341;SDS011;13298;48.792;9.154;2024-01-10T13:31:09;30.80;;;14.10;;
25341;SDS011;13298;48.792;9.154;2024-01-10T13:33:35;29.33;;;14.55;;
25341;SDS011;13298;48.792;9.154;2024-01-10T13:36:02;29.45;;;14.52;;
25341;SDS011;13298;48.792;9.154;2024-01-10T13:38:29;32.28;;;15.05;;
25341;SDS011;13298;48.792;9.154;2024-01-10T13:40:55;30.30;;;14.30;;
25341;SDS011;13298;48.792;9.154;2024-01-10T13:43:21;28.55;;;13.45;;
25341;SDS011;13298;48.792;9.154;2024-01-10T13:45:47;26.33;;;13.60;;
25341;SDS011;13298;48.792;9.154;2024-01-10T13:48:13;23.88;;;12.45;;
25341;SDS011;13298;48.792;9.154;2024-01-10T13:50:39;25.02;;;12.52;;
25341;SDS011;13298;48.792;9.154;2024-01-10T13:53:05;28.35;;;13.70;;
25341;SDS011;13298;48.792;9.154;2024-01-10T13:55:31;27.13;;;13.63;;
25341;SDS011;13298;48.792;9.154;2024-01-10T13:57:57;24.00;;;12.35;;
25341;SDS011;13298;48.792;9.154;2024-01-10T14:00:23;29.67;;;13.93;;
25341;SDS011;13298;48.792;9.154;2024-01-10T14:02:49;29.80;;;13.35;;
25341;SDS011;13298;48.792;9.154;2024-01-10T14:05:15;26.60;;;12.23;;
25341;SDS011;13298;48.792;9.154;2024-01-10T14:07:40;27.88;;;12.57;;
25341;SDS011;13298;48.792;9.154;2024-01-10T14:10:09;30.35;;;13.55;;
25341;SDS011;13298;48.792;9.154;2024-01-10T14:12:38;31.02;;;13.70;;
25341;SDS011;13298;48.792;9.154;2024-01-10T14:15:05;26.05;;;13.35;;
25341;SDS011;13298;48.792;9.154;2024-01-10T14:17:30;30.17;;;13.15;;
25341;SDS011;13298;48.792;9.154;2024-01-10T14:19:56;28.13;;;13.10;;
25341;SDS011;13298;48.792;9.154;2024-01-10T14:22:22;28.55;;;14.63;;
25341;SDS011;13298;48.792;9.154;2024-01-10T14:24:49;27.35;;;13.45;;
25341;SDS011;13298;48.792;9.154;2024-01-10T14:27:15;37.15;;;16.45;;
25341;SDS011;13298;48.792;9.154;2024-01-10T14:29:41;29.20;;;13.50;;
25341;SDS011;13298;48.792;9.154;2024-01-10T14:32:07;30.50;;;14.45;;
25341;SDS011;13298;48.792;9.154;2024-01-10T14:34:32;33.47;;;16.40;;
25341;SDS011;13298;48.792;9.154;2024-01-10T14:36:58;35.67;;;14.65;;
25341;SDS011;13298;48.792;9.154;2024-01-10T14:39:24;31.55;;;14.85;;
25341;SDS011;13298;48.792;9.154;2024-01-10T14:41:50;34.50;;;16.13;;
25341;SDS011;13298;48.792;9.154;2024-01-10T14:44:16;34.40;;;14.88;;